sensor_id;sensor_type;location;lat;lon;timestamp;P1;durP1;ratioP1;P2;durP2;ratioP2
19386;SDS011;9829;48.142;16.382;2022-07-01T00:00:17;8.57;;;7.70;;
19386;SDS011;9829;48.142;16.382;2022-07-01T00:02:44;9.15;;;8.07;;
19386;SDS011;9829;48.142;16.382;2022-07-01T00:05:11;8.68;;;7.95;;
19386;SDS011;9829;48.142;16.382;2022-07-01T00:07:39;12.07;;;7.60;;
19386;SDS011;9829;48.142;16.382;2022-07-01T00:10:06;8.73;;;7.25;;
19386;SDS011;9829;48.142;16.382;2022-07-01T00:12:33;8.65;;;7.75;;
19386;SDS011;9829;48.142;16.382;2022-07-01T00:15:02;12.90;;;8.10;;
19386;SDS011;9829;48.142;16.382;2022-07-01T00:17:29;8.82;;;7.75;;
19386;SDS011;9829;48.142;16.382;2022-07-01T00:19:56;9.10;;;8.05;;
19386;SDS011;9829;48.142;16.382;2022-07-01T00:22:23;8.68;;;7.13;;
19386;SDS011;9829;48.142;16.382;2022-07-01T00:24:52;7.80;;;7.10;;
19386;SDS011;9829;48.142;16.382;2022-07-01T00:27:19;9.38;;;8.27;;
19386;SDS011;9829;48.142;16.382;2022-07-01T00:29:47;8.88;;;7.40;;
19386;SDS011;9829;48.142;16.382;2022-07-01T00:32:15;8.38;;;7.57;;
19386;SDS011;9829;48.142;16.382;2022-07-01T00:34:42;9.00;;;7.40;;
19386;SDS011;9829;48.142;16.382;2022-07-01T00:37:09;7.68;;;6.82;;
19386;SDS011;9829;48.142;16.382;2022-07-01T00:39:36;11.55;;;7.53;;
19386;SDS011;9829;48.142;16.382;2022-07-01T00:42:03;10.60;;;7.47;;
19386;SDS011;9829;48.142;16.382;2022-07-01T00:44:31;7.35;;;6.65;;
19386;SDS011;9829;48.142;16.382;2022-07-01T00:46:58;8.07;;;7.32;;
19386;SDS011;9829;48.142;16.382;2022-07-01T00:49:28;8.75;;;6.97;;
19386;SDS011;9829;48.142;16.382;2022-07-01T00:51:55;7.93;;;7.22;;
19386;SDS011;9829;48.142;16.382;2022-07-01T00:54:23;7.63;;;6.95;;
19386;SDS011;9829;48.142;16.382;2022-07-01T00:56:51;7.80;;;7.10;;
19386;SDS011;9829;48.142;16.382;2022-07-01T00:59:18;7.13;;;6.43;;
19386;SDS011;9829;48.142;16.382;2022-07-01T01:01:45;11.73;;;7.68;;
19386;SDS011;9829;48.142;16.382;2022-07-01T01:04:11;10.98;;;7.55;;
19386;SDS011;9829;48.142;16.382;2022-07-01T01:06:40;7.80;;;7.10;;
19386;SDS011;9829;48.142;16.382;2022-07-01T01:09:07;10.60;;;6.88;;
19386;SDS011;9829;48.142;16.382;2022-07-01T01:11:34;10.57;;;6.88;;
19386;SDS011;9829;48.142;16.382;2022-07-01T01:14:01;7.90;;;6.93;;
19386;SDS011;9829;48.142;16.382;2022-07-01T01:16:28;9.80;;;6.85;;
19386;SDS011;9829;48.142;16.382;2022-07-01T01:18:54;7.65;;;6.95;;
19386;SDS011;9829;48.142;16.382;2022-07-01T01:21:23;9.40;;;6.93;;
19386;SDS011;9829;48.142;16.382;2022-07-01T01:23:51;7.95;;;7.00;;
19386;SDS011;9829;48.142;16.382;2022-07-01T01:26:18;8.15;;;6.63;;
19386;SDS011;9829;48.142;16.382;2022-07-01T01:28:46;7.03;;;6.40;;
19386;SDS011;9829;48.142;16.382;2022-07-01T01:31:14;12.10;;;6.97;;
19386;SDS011;9829;48.142;16.382;2022-07-01T01:33:41;8.60;;;6.93;;
19386;SDS011;9829;48.142;16.382;2022-07-01T01:36:08;7.78;;;7.18;;
19386;SDS011;9829;48.142;16.382;2022-07-01T01:38:36;10.35;;;6.82;;
19386;SDS011;9829;48.142;16.382;2022-07-01T01:41:03;9.15;;;6.60;;
19386;SDS011;9829;48.142;16.382;2022-07-01T01:43:30;10.00;;;6.60;;
19386;SDS011;9829;48.142;16.382;2022-07-01T01:45:59;7.32;;;6.63;;
19386;SDS011;9829;48.142;16.382;2022-07-01T01:48:27;7.75;;;6.95;;
19386;SDS011;9829;48.142;16.382;2022-07-01T01:50:54;12.48;;;6.90;;
19386;SDS011;9829;48.142;16.382;2022-07-01T01:53:21;14.50;;;7.90;;
19386;SDS011;9829;48.142;16.382;2022-07-01T01:55:50;9.70;;;7.15;;
19386;SDS011;9829;48.142;16.382;2022-07-01T01:58:17;7.47;;;6.78;;
19386;SDS011;9829;48.142;16.382;2022-07-01T02:00:44;10.23;;;7.30;;
19386;SDS011;9829;48.142;16.382;2022-07-01T02:03:11;7.88;;;7.13;;
19386;SDS011;9829;48.142;16.382;2022-07-01T02:05:38;8.77;;;7.03;;
19386;SDS011;9829;48.142;16.382;2022-07-01T02:08:04;8.10;;;7.10;;
19386;SDS011;9829;48.142;16.382;2022-07-01T02:10:31;10.38;;;6.78;;
19386;SDS011;9829;48.142;16.382;2022-07-01T02:13:00;7.80;;;6.68;;
19386;SDS011;9829;48.142;16.382;2022-07-01T02:15:26;8.70;;;6.80;;
19386;SDS011;9829;48.142;16.382;2022-07-01T02:17:53;8.93;;;6.43;;
19386;SDS011;9829;48.142;16.382;2022-07-01T02:20:21;11.95;;;7.15;;
19386;SDS011;9829;48.142;16.382;2022-07-01T02:22:49;10.35;;;6.97;;
19386;SDS011;9829;48.142;16.382;2022-07-01T02:25:17;7.10;;;6.40;;
19386;SDS011;9829;48.142;16.382;2022-07-01T02:27:44;8.90;;;6.80;;
19386;SDS011;9829;48.142;16.382;2022-07-01T02:30:13;9.90;;;7.15;;
19386;SDS011;9829;48.142;16.382;2022-07-01T02:32:40;7.88;;;7.03;;
19386;SDS011;9829;48.142;16.382;2022-07-01T02:35:08;7.85;;;7.10;;
19386;SDS011;9829;48.142;16.382;2022-07-01T02:37:35;8.23;;;7.38;;
19386;SDS011;9829;48.142;16.382;2022-07-01T02:40:02;7.90;;;6.80;;
19386;SDS011;9829;48.142;16.382;2022-07-01T02:42:30;12.18;;;7.88;;
19386;SDS011;9829;48.142;16.382;2022-07-01T02:45:00;14.23;;;7.68;;
19386;SDS011;9829;48.142;16.382;2022-07-01T02:47:31;12.20;;;7.95;;
19386;SDS011;9829;48.142;16.382;2022-07-01T02:49:58;10.65;;;7.93;;
19386;SDS011;9829;48.142;16.382;2022-07-01T02:52:25;9.55;;;8.50;;
19386;SDS011;9829;48.142;16.382;2022-07-01T02:54:53;11.48;;;8.40;;
19386;SDS011;9829;48.142;16.382;2022-07-01T02:57:20;10.32;;;9.07;;
19386;SDS011;9829;48.142;16.382;2022-07-01T02:59:47;14.70;;;9.23;;
19386;SDS011;9829;48.142;16.382;2022-07-01T03:02:15;11.57;;;9.50;;
19386;SDS011;9829;48.142;16.382;2022-07-01T03:04:44;11.82;;;10.18;;
19386;SDS011;9829;48.142;16.382;2022-07-01T03:07:11;10.35;;;9.35;;
19386;SDS011;9829;48.142;16.382;2022-07-01T03:09:38;16.17;;;9.48;;
19386;SDS011;9829;48.142;16.382;2022-07-01T03:12:06;11.20;;;9.32;;
19386;SDS011;9829;48.142;16.382;2022-07-01T03:14:47;10.30;;;9.13;;
19386;SDS011;9829;48.142;16.382;2022-07-01T03:17:14;12.07;;;9.35;;
19386;SDS011;9829;48.142;16.382;2022-07-01T03:19:41;10.88;;;9.60;;
19386;SDS011;9829;48.142;16.382;2022-07-01T03:22:09;12.35;;;9.13;;
19386;SDS011;9829;48.142;16.382;2022-07-01T03:24:36;10.98;;;9.98;;
19386;SDS011;9829;48.142;16.382;2022-07-01T03:27:03;13.50;;;9.30;;
19386;SDS011;9829;48.142;16.382;2022-07-01T03:29:30;12.20;;;9.13;;
19386;SDS011;9829;48.142;16.382;2022-07-01T03:31:57;9.95;;;9.00;;
19386;SDS011;9829;48.142;16.382;2022-07-01T03:34:24;12.32;;;9.23;;
19386;SDS011;9829;48.142;16.382;2022-07-01T03:36:51;13.27;;;8.85;;
19386;SDS011;9829;48.142;16.382;2022-07-01T03:39:19;11.40;;;9.38;;
19386;SDS011;9829;48.142;16.382;2022-07-01T03:41:46;16.33;;;9.35;;
19386;SDS011;9829;48.142;16.382;2022-07-01T03:44:13;14.07;;;10.25;;
19386;SDS011;9829;48.142;16.382;2022-07-01T03:46:40;49.47;;;28.58;;
19386;SDS011;9829;48.142;16.382;2022-07-01T03:49:07;189.45;;;103.38;;
19386;SDS011;9829;48.142;16.382;2022-07-01T03:51:34;297.55;;;160.52;;
19386;SDS011;9829;48.142;16.382;2022-07-01T03:54:00;463.08;;;265.17;;
19386;SDS011;9829;48.142;16.382;2022-07-01T03:56:46;386.05;;;216.27;;
19386;SDS011;9829;48.142;16.382;2022-07-01T03:59:13;325.95;;;189.23;;
19386;SDS011;9829;48.142;16.382;2022-07-01T04:01:40;242.73;;;139.32;;
19386;SDS011;9829;48.142;16.382;2022-07-01T04:04:07;169.75;;;99.65;;
19386;SDS011;9829;48.142;16.382;2022-07-01T04:06:34;80.15;;;45.45;;
19386;SDS011;9829;48.142;16.382;2022-07-01T04:09:02;72.75;;;40.33;;
19386;SDS011;9829;48.142;16.382;2022-07-01T04:11:29;44.67;;;26.48;;
19386;SDS011;9829;48.142;16.382;2022-07-01T04:13:59;34.35;;;21.80;;
19386;SDS011;9829;48.142;16.382;2022-07-01T04:16:26;21.45;;;13.98;;
19386;SDS011;9829;48.142;16.382;2022-07-01T04:18:53;21.85;;;11.65;;
19386;SDS011;9829;48.142;16.382;2022-07-01T04:21:20;24.13;;;10.82;;
19386;SDS011;9829;48.142;16.382;2022-07-01T04:24:04;22.67;;;9.40;;
19386;SDS011;9829;48.142;16.382;2022-07-01T04:26:32;27.75;;;9.13;;
19386;SDS011;9829;48.142;16.382;2022-07-01T04:29:00;12.20;;;7.18;;
19386;SDS011;9829;48.142;16.382;2022-07-01T04:31:27;22.02;;;8.60;;
19386;SDS011;9829;48.142;16.382;2022-07-01T04:33:54;11.88;;;7.05;;
19386;SDS011;9829;48.142;16.382;2022-07-01T04:36:21;17.80;;;7.38;;
19386;SDS011;9829;48.142;16.382;2022-07-01T04:38:48;9.52;;;7.78;;
19386;SDS011;9829;48.142;16.382;2022-07-01T04:41:15;7.00;;;6.38;;
19386;SDS011;9829;48.142;16.382;2022-07-01T04:44:01;9.45;;;6.10;;
19386;SDS011;9829;48.142;16.382;2022-07-01T04:46:28;5.75;;;5.10;;
19386;SDS011;9829;48.142;16.382;2022-07-01T04:48:55;18.52;;;5.95;;
19386;SDS011;9829;48.142;16.382;2022-07-01T04:51:22;10.75;;;4.88;;
19386;SDS011;9829;48.142;16.382;2022-07-01T04:53:49;6.07;;;4.40;;
19386;SDS011;9829;48.142;16.382;2022-07-01T04:56:16;4.07;;;3.40;;
19386;SDS011;9829;48.142;16.382;2022-07-01T04:58:43;8.57;;;3.10;;
19386;SDS011;9829;48.142;16.382;2022-07-01T05:01:11;5.75;;;3.35;;
19386;SDS011;9829;48.142;16.382;2022-07-01T05:03:38;9.85;;;3.60;;
19386;SDS011;9829;48.142;16.382;2022-07-01T05:06:05;6.20;;;3.42;;
19386;SDS011;9829;48.142;16.382;2022-07-01T05:08:32;6.57;;;3.08;;
19386;SDS011;9829;48.142;16.382;2022-07-01T05:10:59;3.25;;;3.00;;
19386;SDS011;9829;48.142;16.382;2022-07-01T05:13:26;7.90;;;3.00;;
19386;SDS011;9829;48.142;16.382;2022-07-01T05:15:53;7.47;;;3.13;;
19386;SDS011;9829;48.142;16.382;2022-07-01T05:18:21;8.80;;;2.78;;
19386;SDS011;9829;48.142;16.382;2022-07-01T05:21:05;22.98;;;3.13;;
19386;SDS011;9829;48.142;16.382;2022-07-01T05:23:50;9.23;;;2.40;;
19386;SDS011;9829;48.142;16.382;2022-07-01T05:26:16;5.97;;;2.38;;
19386;SDS011;9829;48.142;16.382;2022-07-01T05:28:43;6.28;;;2.10;;
19386;SDS011;9829;48.142;16.382;2022-07-01T05:31:11;4.38;;;1.80;;
19386;SDS011;9829;48.142;16.382;2022-07-01T05:33:39;11.13;;;1.70;;
19386;SDS011;9829;48.142;16.382;2022-07-01T05:36:06;16.35;;;2.50;;
19386;SDS011;9829;48.142;16.382;2022-07-01T05:38:33;8.65;;;1.60;;
19386;SDS011;9829;48.142;16.382;2022-07-01T05:41:00;4.13;;;1.30;;
19386;SDS011;9829;48.142;16.382;2022-07-01T05:43:27;3.22;;;1.02;;
19386;SDS011;9829;48.142;16.382;2022-07-01T05:45:54;7.75;;;1.40;;
19386;SDS011;9829;48.142;16.382;2022-07-01T05:48:21;3.00;;;1.08;;
19386;SDS011;9829;48.142;16.382;2022-07-01T05:50:50;5.85;;;1.30;;
19386;SDS011;9829;48.142;16.382;2022-07-01T05:53:17;3.13;;;1.10;;
19386;SDS011;9829;48.142;16.382;2022-07-01T05:55:45;3.47;;;0.95;;
19386;SDS011;9829;48.142;16.382;2022-07-01T05:58:12;2.60;;;0.90;;
19386;SDS011;9829;48.142;16.382;2022-07-01T06:00:40;5.50;;;0.88;;
19386;SDS011;9829;48.142;16.382;2022-07-01T06:03:07;1.85;;;0.82;;
19386;SDS011;9829;48.142;16.382;2022-07-01T06:05:34;3.97;;;0.70;;
19386;SDS011;9829;48.142;16.382;2022-07-01T06:08:03;2.95;;;0.73;;
19386;SDS011;9829;48.142;16.382;2022-07-01T06:10:30;5.13;;;0.70;;
19386;SDS011;9829;48.142;16.382;2022-07-01T06:12:58;4.68;;;0.70;;
19386;SDS011;9829;48.142;16.382;2022-07-01T06:15:25;1.95;;;0.60;;
19386;SDS011;9829;48.142;16.382;2022-07-01T06:17:52;4.25;;;0.90;;
19386;SDS011;9829;48.142;16.382;2022-07-01T06:20:19;3.65;;;0.98;;
19386;SDS011;9829;48.142;16.382;2022-07-01T06:22:46;1.65;;;0.75;;
19386;SDS011;9829;48.142;16.382;2022-07-01T06:25:14;3.83;;;1.02;;
19386;SDS011;9829;48.142;16.382;2022-07-01T06:27:42;5.03;;;1.00;;
19386;SDS011;9829;48.142;16.382;2022-07-01T06:30:10;3.90;;;0.90;;
19386;SDS011;9829;48.142;16.382;2022-07-01T06:32:38;2.53;;;0.88;;
19386;SDS011;9829;48.142;16.382;2022-07-01T06:35:06;5.03;;;0.80;;
19386;SDS011;9829;48.142;16.382;2022-07-01T06:37:33;2.55;;;1.20;;
19386;SDS011;9829;48.142;16.382;2022-07-01T06:40:01;2.60;;;1.25;;
19386;SDS011;9829;48.142;16.382;2022-07-01T06:42:31;3.65;;;1.00;;
19386;SDS011;9829;48.142;16.382;2022-07-01T06:44:58;5.75;;;1.17;;
19386;SDS011;9829;48.142;16.382;2022-07-01T06:47:25;3.45;;;1.00;;
19386;SDS011;9829;48.142;16.382;2022-07-01T06:49:52;5.47;;;1.20;;
19386;SDS011;9829;48.142;16.382;2022-07-01T06:52:19;3.45;;;1.17;;
19386;SDS011;9829;48.142;16.382;2022-07-01T06:54:46;3.78;;;1.10;;
19386;SDS011;9829;48.142;16.382;2022-07-01T06:57:13;3.67;;;1.05;;
19386;SDS011;9829;48.142;16.382;2022-07-01T06:59:42;5.80;;;1.13;;
19386;SDS011;9829;48.142;16.382;2022-07-01T07:02:09;4.00;;;1.25;;
19386;SDS011;9829;48.142;16.382;2022-07-01T07:04:35;1.83;;;1.05;;
19386;SDS011;9829;48.142;16.382;2022-07-01T07:07:02;2.10;;;1.30;;
19386;SDS011;9829;48.142;16.382;2022-07-01T07:09:30;2.42;;;1.35;;
19386;SDS011;9829;48.142;16.382;2022-07-01T07:11:56;6.78;;;1.40;;
19386;SDS011;9829;48.142;16.382;2022-07-01T07:14:23;2.40;;;1.38;;
19386;SDS011;9829;48.142;16.382;2022-07-01T07:16:51;2.65;;;1.20;;
19386;SDS011;9829;48.142;16.382;2022-07-01T07:19:20;7.40;;;1.50;;
19386;SDS011;9829;48.142;16.382;2022-07-01T07:21:47;9.73;;;1.35;;
19386;SDS011;9829;48.142;16.382;2022-07-01T07:24:14;3.40;;;1.33;;
19386;SDS011;9829;48.142;16.382;2022-07-01T07:26:41;6.00;;;1.75;;
19386;SDS011;9829;48.142;16.382;2022-07-01T07:29:08;4.45;;;1.40;;
19386;SDS011;9829;48.142;16.382;2022-07-01T07:31:35;2.22;;;1.13;;
19386;SDS011;9829;48.142;16.382;2022-07-01T07:34:03;4.25;;;1.50;;
19386;SDS011;9829;48.142;16.382;2022-07-01T07:36:30;2.45;;;1.10;;
19386;SDS011;9829;48.142;16.382;2022-07-01T07:38:57;3.80;;;1.40;;
19386;SDS011;9829;48.142;16.382;2022-07-01T07:41:24;3.97;;;1.50;;
19386;SDS011;9829;48.142;16.382;2022-07-01T07:43:51;5.10;;;1.48;;
19386;SDS011;9829;48.142;16.382;2022-07-01T07:46:18;2.63;;;1.45;;
19386;SDS011;9829;48.142;16.382;2022-07-01T07:48:45;10.57;;;1.40;;
19386;SDS011;9829;48.142;16.382;2022-07-01T07:51:14;6.07;;;1.55;;
19386;SDS011;9829;48.142;16.382;2022-07-01T07:53:43;5.40;;;1.52;;
19386;SDS011;9829;48.142;16.382;2022-07-01T07:56:10;2.40;;;1.58;;
19386;SDS011;9829;48.142;16.382;2022-07-01T07:58:37;4.15;;;1.40;;
19386;SDS011;9829;48.142;16.382;2022-07-01T08:01:07;3.75;;;1.30;;
19386;SDS011;9829;48.142;16.382;2022-07-01T08:03:34;4.03;;;1.50;;
19386;SDS011;9829;48.142;16.382;2022-07-01T08:06:01;3.58;;;1.90;;
19386;SDS011;9829;48.142;16.382;2022-07-01T08:08:30;4.15;;;1.67;;
19386;SDS011;9829;48.142;16.382;2022-07-01T08:10:57;4.53;;;1.58;;
19386;SDS011;9829;48.142;16.382;2022-07-01T08:13:24;1.58;;;1.48;;
19386;SDS011;9829;48.142;16.382;2022-07-01T08:15:51;2.03;;;1.70;;
19386;SDS011;9829;48.142;16.382;2022-07-01T08:18:18;5.68;;;1.65;;
19386;SDS011;9829;48.142;16.382;2022-07-01T08:20:45;3.30;;;1.80;;
19386;SDS011;9829;48.142;16.382;2022-07-01T08:23:12;4.22;;;2.08;;
19386;SDS011;9829;48.142;16.382;2022-07-01T08:25:40;5.95;;;1.85;;
19386;SDS011;9829;48.142;16.382;2022-07-01T08:28:07;2.20;;;1.65;;
19386;SDS011;9829;48.142;16.382;2022-07-01T08:30:34;9.73;;;1.60;;
19386;SDS011;9829;48.142;16.382;2022-07-01T08:33:00;3.70;;;1.52;;
19386;SDS011;9829;48.142;16.382;2022-07-01T08:35:27;6.45;;;1.75;;
19386;SDS011;9829;48.142;16.382;2022-07-01T08:37:55;6.63;;;2.05;;
19386;SDS011;9829;48.142;16.382;2022-07-01T08:40:24;4.47;;;1.70;;
19386;SDS011;9829;48.142;16.382;2022-07-01T08:42:55;4.88;;;2.00;;
19386;SDS011;9829;48.142;16.382;2022-07-01T08:45:24;3.55;;;1.98;;
19386;SDS011;9829;48.142;16.382;2022-07-01T08:47:53;3.83;;;1.70;;
19386;SDS011;9829;48.142;16.382;2022-07-01T08:50:22;8.05;;;1.80;;
19386;SDS011;9829;48.142;16.382;2022-07-01T08:52:50;2.22;;;2.00;;
19386;SDS011;9829;48.142;16.382;2022-07-01T08:55:18;3.00;;;1.80;;
19386;SDS011;9829;48.142;16.382;2022-07-01T08:57:45;1.98;;;1.77;;
19386;SDS011;9829;48.142;16.382;2022-07-01T09:00:14;3.47;;;2.25;;
19386;SDS011;9829;48.142;16.382;2022-07-01T09:05:30;9.45;;;2.10;;
19386;SDS011;9829;48.142;16.382;2022-07-01T09:07:58;3.05;;;2.10;;
19386;SDS011;9829;48.142;16.382;2022-07-01T09:10:26;4.45;;;1.77;;
19386;SDS011;9829;48.142;16.382;2022-07-01T09:12:56;5.32;;;1.80;;
19386;SDS011;9829;48.142;16.382;2022-07-01T09:15:26;4.63;;;2.10;;
19386;SDS011;9829;48.142;16.382;2022-07-01T09:17:54;7.13;;;1.95;;
19386;SDS011;9829;48.142;16.382;2022-07-01T09:20:27;3.45;;;2.20;;
19386;SDS011;9829;48.142;16.382;2022-07-01T09:22:58;3.63;;;2.30;;
19386;SDS011;9829;48.142;16.382;2022-07-01T09:25:27;5.65;;;2.28;;
19386;SDS011;9829;48.142;16.382;2022-07-01T09:28:05;7.97;;;2.28;;
19386;SDS011;9829;48.142;16.382;2022-07-01T09:30:35;7.07;;;2.30;;
19386;SDS011;9829;48.142;16.382;2022-07-01T09:33:09;4.85;;;2.42;;
19386;SDS011;9829;48.142;16.382;2022-07-01T09:35:38;2.78;;;2.05;;
19386;SDS011;9829;48.142;16.382;2022-07-01T09:38:05;2.33;;;2.00;;
19386;SDS011;9829;48.142;16.382;2022-07-01T09:40:46;6.07;;;2.35;;
19386;SDS011;9829;48.142;16.382;2022-07-01T09:43:21;3.92;;;2.10;;
19386;SDS011;9829;48.142;16.382;2022-07-01T09:45:54;7.43;;;2.03;;
19386;SDS011;9829;48.142;16.382;2022-07-01T09:48:23;7.55;;;2.50;;
19386;SDS011;9829;48.142;16.382;2022-07-01T09:50:51;8.82;;;2.38;;
19386;SDS011;9829;48.142;16.382;2022-07-01T09:53:19;7.82;;;2.38;;
19386;SDS011;9829;48.142;16.382;2022-07-01T09:55:46;11.32;;;2.38;;
19386;SDS011;9829;48.142;16.382;2022-07-01T09:58:13;2.30;;;2.10;;
19386;SDS011;9829;48.142;16.382;2022-07-01T10:00:40;5.03;;;2.10;;
19386;SDS011;9829;48.142;16.382;2022-07-01T10:03:09;3.00;;;2.10;;
19386;SDS011;9829;48.142;16.382;2022-07-01T10:05:38;10.18;;;2.20;;
19386;SDS011;9829;48.142;16.382;2022-07-01T10:11:08;3.28;;;2.00;;
19386;SDS011;9829;48.142;16.382;2022-07-01T10:13:59;6.85;;;2.17;;
19386;SDS011;9829;48.142;16.382;2022-07-01T10:16:29;5.40;;;2.30;;
19386;SDS011;9829;48.142;16.382;2022-07-01T10:18:58;8.38;;;2.22;;
19386;SDS011;9829;48.142;16.382;2022-07-01T10:21:26;5.78;;;2.42;;
19386;SDS011;9829;48.142;16.382;2022-07-01T10:23:56;5.47;;;2.42;;
19386;SDS011;9829;48.142;16.382;2022-07-01T10:26:37;9.00;;;2.38;;
19386;SDS011;9829;48.142;16.382;2022-07-01T10:29:04;3.53;;;2.13;;
19386;SDS011;9829;48.142;16.382;2022-07-01T10:31:51;6.28;;;1.98;;
19386;SDS011;9829;48.142;16.382;2022-07-01T10:34:20;9.43;;;2.70;;
19386;SDS011;9829;48.142;16.382;2022-07-01T10:37:00;3.85;;;2.10;;
19386;SDS011;9829;48.142;16.382;2022-07-01T10:39:28;3.42;;;1.83;;
19386;SDS011;9829;48.142;16.382;2022-07-01T10:41:57;2.70;;;2.20;;
19386;SDS011;9829;48.142;16.382;2022-07-01T10:44:26;2.45;;;2.25;;
19386;SDS011;9829;48.142;16.382;2022-07-01T10:46:54;8.50;;;2.05;;
19386;SDS011;9829;48.142;16.382;2022-07-01T10:52:24;5.35;;;2.00;;
19386;SDS011;9829;48.142;16.382;2022-07-01T10:54:53;9.23;;;2.28;;
19386;SDS011;9829;48.142;16.382;2022-07-01T10:57:22;6.35;;;2.25;;
19386;SDS011;9829;48.142;16.382;2022-07-01T10:59:55;5.82;;;2.30;;
19386;SDS011;9829;48.142;16.382;2022-07-01T11:02:43;6.53;;;2.20;;
19386;SDS011;9829;48.142;16.382;2022-07-01T11:05:12;3.80;;;1.83;;
19386;SDS011;9829;48.142;16.382;2022-07-01T11:07:40;5.43;;;2.00;;
19386;SDS011;9829;48.142;16.382;2022-07-01T11:10:10;4.43;;;1.92;;
19386;SDS011;9829;48.142;16.382;2022-07-01T11:12:40;11.85;;;2.22;;
19386;SDS011;9829;48.142;16.382;2022-07-01T11:15:09;6.15;;;1.90;;
19386;SDS011;9829;48.142;16.382;2022-07-01T11:17:41;6.85;;;1.90;;
19386;SDS011;9829;48.142;16.382;2022-07-01T11:20:09;6.15;;;1.80;;
19386;SDS011;9829;48.142;16.382;2022-07-01T11:22:38;5.65;;;1.90;;
19386;SDS011;9829;48.142;16.382;2022-07-01T11:25:07;6.03;;;2.10;;
19386;SDS011;9829;48.142;16.382;2022-07-01T11:27:35;2.85;;;1.50;;
19386;SDS011;9829;48.142;16.382;2022-07-01T11:30:04;1.80;;;1.60;;
19386;SDS011;9829;48.142;16.382;2022-07-01T11:32:34;4.55;;;1.63;;
19386;SDS011;9829;48.142;16.382;2022-07-01T11:35:03;4.15;;;1.85;;
19386;SDS011;9829;48.142;16.382;2022-07-01T11:37:53;2.80;;;1.83;;
19386;SDS011;9829;48.142;16.382;2022-07-01T11:40:48;6.40;;;1.65;;
19386;SDS011;9829;48.142;16.382;2022-07-01T11:43:18;5.82;;;1.60;;
19386;SDS011;9829;48.142;16.382;2022-07-01T11:45:45;2.80;;;1.63;;
19386;SDS011;9829;48.142;16.382;2022-07-01T11:48:13;4.97;;;1.88;;
19386;SDS011;9829;48.142;16.382;2022-07-01T11:51:07;2.10;;;1.90;;
19386;SDS011;9829;48.142;16.382;2022-07-01T11:53:38;6.45;;;1.65;;
19386;SDS011;9829;48.142;16.382;2022-07-01T11:56:06;3.63;;;1.95;;
19386;SDS011;9829;48.142;16.382;2022-07-01T11:58:43;4.00;;;1.77;;
19386;SDS011;9829;48.142;16.382;2022-07-01T12:01:19;4.65;;;1.77;;
19386;SDS011;9829;48.142;16.382;2022-07-01T12:03:46;1.95;;;1.75;;
19386;SDS011;9829;48.142;16.382;2022-07-01T12:06:14;4.97;;;1.92;;
19386;SDS011;9829;48.142;16.382;2022-07-01T12:08:43;2.53;;;2.08;;
19386;SDS011;9829;48.142;16.382;2022-07-01T12:11:11;9.32;;;2.45;;
19386;SDS011;9829;48.142;16.382;2022-07-01T12:13:38;8.15;;;2.00;;
19386;SDS011;9829;48.142;16.382;2022-07-01T12:16:05;5.93;;;1.85;;
19386;SDS011;9829;48.142;16.382;2022-07-01T12:18:33;5.80;;;1.98;;
19386;SDS011;9829;48.142;16.382;2022-07-01T12:21:00;6.82;;;2.20;;
19386;SDS011;9829;48.142;16.382;2022-07-01T12:23:27;4.93;;;2.50;;
19386;SDS011;9829;48.142;16.382;2022-07-01T12:25:56;6.72;;;2.17;;
19386;SDS011;9829;48.142;16.382;2022-07-01T12:28:27;10.27;;;2.22;;
19386;SDS011;9829;48.142;16.382;2022-07-01T12:31:01;4.80;;;2.30;;
19386;SDS011;9829;48.142;16.382;2022-07-01T12:33:31;7.88;;;2.40;;
19386;SDS011;9829;48.142;16.382;2022-07-01T12:36:00;5.60;;;2.33;;
19386;SDS011;9829;48.142;16.382;2022-07-01T12:38:27;3.63;;;2.10;;
19386;SDS011;9829;48.142;16.382;2022-07-01T12:40:54;4.15;;;2.45;;
19386;SDS011;9829;48.142;16.382;2022-07-01T12:43:31;5.82;;;2.47;;
19386;SDS011;9829;48.142;16.382;2022-07-01T12:46:02;3.13;;;2.28;;
19386;SDS011;9829;48.142;16.382;2022-07-01T12:48:29;6.53;;;2.80;;
19386;SDS011;9829;48.142;16.382;2022-07-01T12:51:14;8.40;;;2.60;;
19386;SDS011;9829;48.142;16.382;2022-07-01T12:53:41;3.85;;;2.80;;
19386;SDS011;9829;48.142;16.382;2022-07-01T12:56:11;3.72;;;2.30;;
19386;SDS011;9829;48.142;16.382;2022-07-01T12:58:50;3.50;;;3.08;;
19386;SDS011;9829;48.142;16.382;2022-07-01T13:01:18;6.10;;;2.53;;
19386;SDS011;9829;48.142;16.382;2022-07-01T13:03:45;4.43;;;2.88;;
19386;SDS011;9829;48.142;16.382;2022-07-01T13:06:13;2.42;;;2.30;;
19386;SDS011;9829;48.142;16.382;2022-07-01T13:08:40;5.15;;;2.60;;
19386;SDS011;9829;48.142;16.382;2022-07-01T13:11:07;9.75;;;2.58;;
19386;SDS011;9829;48.142;16.382;2022-07-01T13:13:34;8.30;;;2.50;;
19386;SDS011;9829;48.142;16.382;2022-07-01T13:16:02;4.70;;;2.03;;
19386;SDS011;9829;48.142;16.382;2022-07-01T13:18:29;3.97;;;2.40;;
19386;SDS011;9829;48.142;16.382;2022-07-01T13:20:56;10.55;;;2.40;;
19386;SDS011;9829;48.142;16.382;2022-07-01T13:23:23;3.20;;;2.80;;
19386;SDS011;9829;48.142;16.382;2022-07-01T13:25:50;12.50;;;2.58;;
19386;SDS011;9829;48.142;16.382;2022-07-01T13:28:17;6.85;;;3.22;;
19386;SDS011;9829;48.142;16.382;2022-07-01T13:30:44;3.63;;;2.50;;
19386;SDS011;9829;48.142;16.382;2022-07-01T13:33:12;7.40;;;2.83;;
19386;SDS011;9829;48.142;16.382;2022-07-01T13:35:39;7.35;;;3.45;;
19386;SDS011;9829;48.142;16.382;2022-07-01T13:38:06;2.70;;;2.50;;
19386;SDS011;9829;48.142;16.382;2022-07-01T13:40:33;5.53;;;2.90;;
19386;SDS011;9829;48.142;16.382;2022-07-01T13:43:00;2.97;;;2.60;;
19386;SDS011;9829;48.142;16.382;2022-07-01T13:45:27;5.45;;;3.25;;
19386;SDS011;9829;48.142;16.382;2022-07-01T13:47:54;5.43;;;3.03;;
19386;SDS011;9829;48.142;16.382;2022-07-01T13:50:22;3.70;;;2.78;;
19386;SDS011;9829;48.142;16.382;2022-07-01T13:52:49;4.38;;;2.95;;
19386;SDS011;9829;48.142;16.382;2022-07-01T13:55:16;5.30;;;2.75;;
19386;SDS011;9829;48.142;16.382;2022-07-01T13:57:44;5.45;;;2.55;;
19386;SDS011;9829;48.142;16.382;2022-07-01T14:00:11;3.55;;;2.97;;
19386;SDS011;9829;48.142;16.382;2022-07-01T14:02:39;3.88;;;2.90;;
19386;SDS011;9829;48.142;16.382;2022-07-01T14:05:06;4.65;;;2.83;;
19386;SDS011;9829;48.142;16.382;2022-07-01T14:07:35;9.80;;;3.17;;
19386;SDS011;9829;48.142;16.382;2022-07-01T14:10:02;3.25;;;2.92;;
19386;SDS011;9829;48.142;16.382;2022-07-01T14:12:30;6.20;;;3.13;;
19386;SDS011;9829;48.142;16.382;2022-07-01T14:14:57;6.20;;;2.60;;
19386;SDS011;9829;48.142;16.382;2022-07-01T14:17:24;5.18;;;3.08;;
19386;SDS011;9829;48.142;16.382;2022-07-01T14:19:52;5.18;;;2.88;;
19386;SDS011;9829;48.142;16.382;2022-07-01T14:22:21;4.93;;;3.20;;
19386;SDS011;9829;48.142;16.382;2022-07-01T14:24:49;6.78;;;3.00;;
19386;SDS011;9829;48.142;16.382;2022-07-01T14:27:16;8.07;;;3.28;;
19386;SDS011;9829;48.142;16.382;2022-07-01T14:29:44;9.18;;;3.35;;
19386;SDS011;9829;48.142;16.382;2022-07-01T14:32:11;5.32;;;3.00;;
19386;SDS011;9829;48.142;16.382;2022-07-01T14:34:38;7.85;;;3.10;;
19386;SDS011;9829;48.142;16.382;2022-07-01T14:37:04;3.65;;;3.03;;
19386;SDS011;9829;48.142;16.382;2022-07-01T14:39:31;4.00;;;2.97;;
19386;SDS011;9829;48.142;16.382;2022-07-01T14:42:00;4.57;;;3.00;;
19386;SDS011;9829;48.142;16.382;2022-07-01T14:44:27;6.07;;;3.35;;
19386;SDS011;9829;48.142;16.382;2022-07-01T14:46:54;3.17;;;2.88;;
19386;SDS011;9829;48.142;16.382;2022-07-01T14:49:21;8.68;;;3.50;;
19386;SDS011;9829;48.142;16.382;2022-07-01T14:51:49;3.53;;;3.22;;
19386;SDS011;9829;48.142;16.382;2022-07-01T14:54:16;5.25;;;3.30;;
19386;SDS011;9829;48.142;16.382;2022-07-01T14:56:42;3.70;;;3.13;;
19386;SDS011;9829;48.142;16.382;2022-07-01T14:59:11;4.60;;;3.30;;